Time;durP1;ratioP1;P1;durP2;ratioP2;P2;SDS_P1;SDS_P2;PMS_P1;PMS_P2;Temp;Humidity;BMP_temperature;BMP_pressure;BME280_temperature;BME280_humidity;BME280_pressure;Samples;Min_cycle;Max_cycle;Signal;HPM_P1;HPM_P2
2022/01/19 00:00:58;;;;;;;7.37;4.27;;;;;;;;;;4749279;30;21269;-86
2022/01/19 00:04:03;;;;;;;8.10;4.00;;;;;;;;;;4742863;30;20552;-86
2022/01/19 00:07:06;;;;;;;7.90;4.07;;;;;;;;;;4742479;30;20950;-86
2022/01/19 00:10:16;;;;;;;6.87;4.17;;;;;;;;;;4754158;30;20661;-86
2022/01/19 00:13:20;;;;;;;7.67;3.80;;;;;;;;;;4745223;30;20884;-86
2022/01/19 00:16:25;;;;;;;12.00;4.37;;;;;;;;;;4735058;30;20545;-86
2022/01/19 00:19:29;;;;;;;9.60;4.20;;;;;;;;;;4727592;30;20659;-86
2022/01/19 00:22:33;;;;;;;8.30;3.90;;;;;;;;;;4740071;30;20609;-86
2022/01/19 00:25:38;;;;;;;7.03;4.10;;;;;;;;;;4736868;30;20609;-86
2022/01/19 00:28:42;;;;;;;8.73;4.03;;;;;;;;;;4761916;30;20600;-85
2022/01/19 00:31:46;;;;;;;8.27;4.13;;;;;;;;;;4725069;30;20549;-86
2022/01/19 00:34:50;;;;;;;8.57;4.17;;;;;;;;;;4741814;30;20584;-87
2022/01/19 00:37:54;;;;;;;6.90;3.83;;;;;;;;;;4738101;30;20597;-87
2022/01/19 00:40:58;;;;;;;7.83;3.83;;;;;;;;;;4737448;30;20659;-86
2022/01/19 00:44:03;;;;;;;7.63;4.37;;;;;;;;;;4741872;30;20608;-88
2022/01/19 00:47:08;;;;;;;11.53;4.50;;;;;;;;;;4742367;30;20553;-87
2022/01/19 00:50:15;;;;;;;10.30;4.40;;;;;;;;;;4734180;30;21033;-86
2022/01/19 00:53:20;;;;;;;9.17;4.43;;;;;;;;;;4734488;30;20578;-87
2022/01/19 00:56:24;;;;;;;9.27;4.20;;;;;;;;;;4730217;30;20599;-86
2022/01/19 00:59:28;;;;;;;10.13;4.60;;;;;;;;;;4741410;30;20651;-87
2022/01/19 01:02:32;;;;;;;9.27;4.60;;;;;;;;;;4734223;30;20556;-86
2022/01/19 01:05:38;;;;;;;8.23;4.60;;;;;;;;;;4723375;30;21180;-86
2022/01/19 01:08:43;;;;;;;9.73;4.90;;;;;;;;;;4734251;30;20554;-87
2022/01/19 01:12:08;;;;;;;15.50;5.07;;;;;;;;;;4741485;30;20946;-86
2022/01/19 01:15:35;;;;;;;8.63;4.40;;;;;;;;;;4751326;30;20607;-87
2022/01/19 01:18:39;;;;;;;11.73;4.40;;;;;;;;;;4741942;30;20561;-86
2022/01/19 01:21:43;;;;;;;7.53;4.13;;;;;;;;;;4741035;30;20647;-87
2022/01/19 01:24:47;;;;;;;12.33;4.40;;;;;;;;;;4741249;30;20604;-86
2022/01/19 01:27:51;;;;;;;10.20;4.90;;;;;;;;;;4737031;30;20601;-86
2022/01/19 01:30:56;;;;;;;8.43;4.70;;;;;;;;;;4736573;30;20659;-87
2022/01/19 01:34:00;;;;;;;10.20;4.70;;;;;;;;;;4723636;30;21165;-87
2022/01/19 01:37:05;;;;;;;10.27;4.80;;;;;;;;;;4723775;30;20615;-86
2022/01/19 01:40:13;;;;;;;10.30;4.40;;;;;;;;;;4723583;30;20647;-87
2022/01/19 01:43:17;;;;;;;5.87;3.97;;;;;;;;;;4740717;30;20615;-86
2022/01/19 01:46:41;;;;;;;9.87;4.30;;;;;;;;;;4740411;30;20663;-86
2022/01/19 01:56:16;;;;;;;11.63;4.07;;;;;;;;;;4733657;30;20574;-86
2022/01/19 01:59:22;;;;;;;9.70;3.80;;;;;;;;;;4758525;30;20695;-87
2022/01/19 02:02:49;;;;;;;7.43;3.80;;;;;;;;;;4748793;30;20609;-87
2022/01/19 02:06:19;;;;;;;10.30;4.10;;;;;;;;;;4743910;30;20644;-86
2022/01/19 02:09:29;;;;;;;10.60;4.40;;;;;;;;;;4750709;30;20645;-86
2022/01/19 02:22:43;;;;;;;9.20;4.00;;;;;;;;;;4735472;30;20608;-86
2022/01/19 02:26:13;;;;;;;8.20;3.47;;;;;;;;;;4739645;30;20616;-86
2022/01/19 02:29:51;;;;;;;8.37;3.50;;;;;;;;;;4749821;30;20660;-86
2022/01/19 02:49:30;;;;;;;8.30;3.87;;;;;;;;;;4732364;30;20660;-87
2022/01/19 02:52:34;;;;;;;8.03;3.40;;;;;;;;;;4732417;30;21157;-87
2022/01/19 02:55:39;;;;;;;6.53;3.30;;;;;;;;;;4739431;30;20604;-86
2022/01/19 02:58:46;;;;;;;6.77;3.00;;;;;;;;;;4739939;30;20560;-87
2022/01/19 03:08:50;;;;;;;11.33;3.53;;;;;;;;;;4742483;30;20601;-87
2022/01/19 03:11:57;;;;;;;7.20;3.20;;;;;;;;;;4733651;30;20616;-86
2022/01/19 03:15:01;;;;;;;9.30;3.50;;;;;;;;;;4732484;30;20550;-87
2022/01/19 03:18:06;;;;;;;6.93;3.80;;;;;;;;;;4722383;30;20546;-87
2022/01/19 03:21:10;;;;;;;7.20;3.57;;;;;;;;;;4737776;30;20954;-87
2022/01/19 03:24:14;;;;;;;7.97;3.70;;;;;;;;;;4738748;30;20592;-86
2022/01/19 03:27:19;;;;;;;14.97;5.80;;;;;;;;;;4749861;30;20604;-87
2022/01/19 03:30:30;;;;;;;17.30;7.83;;;;;;;;;;4746512;30;21216;-86
2022/01/19 03:33:34;;;;;;;26.23;11.03;;;;;;;;;;4755561;30;20571;-86
2022/01/19 03:36:39;;;;;;;22.03;8.50;;;;;;;;;;4737384;30;20600;-86
2022/01/19 03:39:43;;;;;;;16.47;6.70;;;;;;;;;;4752125;30;20680;-87
2022/01/19 03:42:47;;;;;;;9.87;5.80;;;;;;;;;;4745412;30;20579;-86
2022/01/19 03:45:54;;;;;;;13.77;5.57;;;;;;;;;;4745360;30;20560;-87
2022/01/19 03:49:08;;;;;;;11.57;5.40;;;;;;;;;;4754071;30;20655;-87
2022/01/19 03:52:13;;;;;;;10.87;5.10;;;;;;;;;;4737909;30;20552;-86
2022/01/19 03:55:17;;;;;;;10.03;4.77;;;;;;;;;;4727689;30;20576;-86
2022/01/19 03:58:21;;;;;;;11.67;4.13;;;;;;;;;;4737743;30;20558;-87
2022/01/19 04:01:26;;;;;;;8.53;3.87;;;;;;;;;;4737347;30;20623;-86
2022/01/19 04:08:04;;;;;;;7.37;3.53;;;;;;;;;;4737534;30;20608;-86
2022/01/19 04:11:08;;;;;;;7.77;4.27;;;;;;;;;;4727279;30;20569;-86
2022/01/19 04:14:27;;;;;;;9.27;3.83;;;;;;;;;;4744452;30;20596;-86
2022/01/19 04:17:33;;;;;;;5.47;3.63;;;;;;;;;;4754896;30;20596;-86
2022/01/19 04:20:41;;;;;;;10.50;4.10;;;;;;;;;;4744891;30;20639;-86
2022/01/19 04:23:45;;;;;;;4.17;2.90;;;;;;;;;;4754981;30;20625;-86
2022/01/19 04:30:15;;;;;;;6.23;3.40;;;;;;;;;;4751485;30;21001;-86
2022/01/19 04:33:30;;;;;;;10.00;3.60;;;;;;;;;;4755477;30;20557;-86
2022/01/19 04:36:58;;;;;;;6.80;3.43;;;;;;;;;;4754864;30;20976;-86
2022/01/19 04:47:30;;;;;;;7.50;3.60;;;;;;;;;;4734632;30;20605;-87
2022/01/19 04:54:19;;;;;;;5.97;3.40;;;;;;;;;;4734614;30;20632;-86
2022/01/19 05:04:27;;;;;;;7.77;3.47;;;;;;;;;;4755106;30;20554;-89
2022/01/19 05:08:40;;;;;;;6.13;3.20;;;;;;;;;;4734066;30;20613;-89
2022/01/19 05:14:31;;;;;;;6.57;2.93;;;;;;;;;;4733950;30;20553;-88
2022/01/19 05:17:36;;;;;;;6.13;3.37;;;;;;;;;;4733748;30;20628;-89
2022/01/19 05:20:41;;;;;;;6.87;3.57;;;;;;;;;;4731877;30;20652;-89
2022/01/19 05:23:46;;;;;;;6.03;3.10;;;;;;;;;;4736517;30;20959;-89
2022/01/19 05:26:52;;;;;;;8.87;3.40;;;;;;;;;;4733881;30;20609;-89
2022/01/19 05:30:04;;;;;;;7.83;3.37;;;;;;;;;;4748730;30;20663;-89
2022/01/19 05:33:08;;;;;;;9.67;3.67;;;;;;;;;;4741368;30;20548;-89
2022/01/19 05:36:13;;;;;;;3.50;2.83;;;;;;;;;;4750719;30;20604;-89
2022/01/19 05:39:35;;;;;;;8.87;3.50;;;;;;;;;;4753467;30;20639;-88
2022/01/19 05:42:50;;;;;;;5.43;3.33;;;;;;;;;;4752386;30;20604;-89
2022/01/19 05:45:55;;;;;;;5.10;3.30;;;;;;;;;;4740631;30;21164;-89
2022/01/19 05:49:01;;;;;;;6.73;3.77;;;;;;;;;;4735804;30;20641;-89
2022/01/19 05:52:07;;;;;;;9.43;3.60;;;;;;;;;;4723027;30;20891;-89
2022/01/19 05:55:11;;;;;;;7.73;3.30;;;;;;;;;;4723680;30;20549;-89
2022/01/19 05:58:15;;;;;;;8.03;3.17;;;;;;;;;;4747747;30;20580;-89
2022/01/19 06:01:21;;;;;;;10.13;4.40;;;;;;;;;;4741113;30;20608;-89
2022/01/19 06:04:25;;;;;;;9.80;3.73;;;;;;;;;;4728383;30;20965;-88
2022/01/19 06:08:16;;;;;;;5.40;3.33;;;;;;;;;;4733656;30;20613;-89
2022/01/19 06:11:30;;;;;;;5.07;4.00;;;;;;;;;;4735978;30;20731;-88
2022/01/19 06:14:37;;;;;;;11.70;4.70;;;;;;;;;;4740816;30;20557;-88
2022/01/19 06:17:41;;;;;;;8.83;4.53;;;;;;;;;;4736682;30;20609;-88
2022/01/19 06:20:51;;;;;;;7.47;4.17;;;;;;;;;;4738051;30;20647;-89
2022/01/19 06:24:02;;;;;;;7.97;3.77;;;;;;;;;;4741187;30;20612;-89
2022/01/19 06:27:06;;;;;;;8.60;4.07;;;;;;;;;;4740643;30;20600;-88
2022/01/19 06:30:12;;;;;;;7.50;4.40;;;;;;;;;;4732466;30;20653;-88
2022/01/19 06:33:18;;;;;;;7.80;4.43;;;;;;;;;;4746856;30;20608;-88
2022/01/19 06:36:22;;;;;;;8.23;4.40;;;;;;;;;;4740083;30;20903;-89
2022/01/19 06:39:31;;;;;;;8.97;4.73;;;;;;;;;;4740513;30;20636;-88
2022/01/19 06:42:46;;;;;;;9.00;4.80;;;;;;;;;;4739955;30;20608;-88
2022/01/19 06:45:51;;;;;;;10.77;4.10;;;;;;;;;;4740421;30;20977;-89
2022/01/19 06:48:56;;;;;;;6.60;4.10;;;;;;;;;;4744190;30;20613;-89
2022/01/19 06:52:01;;;;;;;9.40;4.47;;;;;;;;;;4742464;30;21192;-88
2022/01/19 06:55:07;;;;;;;9.43;4.80;;;;;;;;;;4737400;30;20632;-89
2022/01/19 06:58:11;;;;;;;10.10;4.53;;;;;;;;;;4747427;30;20592;-89
2022/01/19 07:01:20;;;;;;;9.17;4.37;;;;;;;;;;4760933;30;20555;-88
2022/01/19 07:04:36;;;;;;;11.83;4.73;;;;;;;;;;4739930;30;21195;-88
2022/01/19 07:07:41;;;;;;;9.80;4.83;;;;;;;;;;4733006;30;20658;-89
2022/01/19 07:10:46;;;;;;;8.87;4.60;;;;;;;;;;4722909;30;20664;-88
2022/01/19 07:13:50;;;;;;;10.07;5.00;;;;;;;;;;4745061;30;20601;-89
2022/01/19 07:16:55;;;;;;;8.47;4.67;;;;;;;;;;4749904;30;20564;-89
2022/01/19 07:19:59;;;;;;;7.57;4.90;;;;;;;;;;4739594;30;20635;-89
2022/01/19 07:23:03;;;;;;;9.57;4.93;;;;;;;;;;4738046;30;20604;-88
2022/01/19 07:26:07;;;;;;;12.50;5.93;;;;;;;;;;4739887;30;21085;-89
2022/01/19 07:29:13;;;;;;;10.23;5.20;;;;;;;;;;4722116;30;20633;-89
2022/01/19 07:32:22;;;;;;;12.33;6.23;;;;;;;;;;4736324;30;20969;-89
2022/01/19 07:35:26;;;;;;;7.57;4.80;;;;;;;;;;4732087;30;20561;-89
2022/01/19 07:38:31;;;;;;;16.37;6.00;;;;;;;;;;4731684;30;20581;-89
2022/01/19 07:41:35;;;;;;;11.90;5.40;;;;;;;;;;4722092;30;20565;-89
2022/01/19 07:45:00;;;;;;;8.03;5.30;;;;;;;;;;4734540;30;20914;-89
2022/01/19 07:48:27;;;;;;;14.30;6.17;;;;;;;;;;4725332;30;20609;-89
2022/01/19 07:51:45;;;;;;;12.00;7.23;;;;;;;;;;4749955;30;20559;-89
2022/01/19 07:55:09;;;;;;;15.50;6.70;;;;;;;;;;4751965;30;20568;-89
2022/01/19 07:58:25;;;;;;;11.00;6.73;;;;;;;;;;4740423;30;20613;-89
2022/01/19 08:01:47;;;;;;;12.00;7.80;;;;;;;;;;4751654;30;20564;-90
2022/01/19 08:05:14;;;;;;;12.70;7.13;;;;;;;;;;4744979;30;20585;-89
2022/01/19 08:08:19;;;;;;;17.97;7.50;;;;;;;;;;4731823;30;20616;-89
2022/01/19 08:11:24;;;;;;;12.30;7.83;;;;;;;;;;4741617;30;20612;-89
2022/01/19 08:14:49;;;;;;;15.00;8.30;;;;;;;;;;4733434;30;20565;-89
2022/01/19 08:17:57;;;;;;;11.37;7.63;;;;;;;;;;4734797;30;20620;-89
2022/01/19 08:21:02;;;;;;;14.47;8.40;;;;;;;;;;4725137;30;20648;-89
2022/01/19 08:24:12;;;;;;;19.43;8.33;;;;;;;;;;4725725;30;20568;-89
2022/01/19 08:27:18;;;;;;;15.57;9.03;;;;;;;;;;4734655;30;20643;-89
2022/01/19 08:30:26;;;;;;;15.73;9.10;;;;;;;;;;4735010;30;20645;-89
2022/01/19 08:33:30;;;;;;;16.13;8.83;;;;;;;;;;4724799;30;20627;-89
2022/01/19 08:36:39;;;;;;;16.70;8.67;;;;;;;;;;4725392;30;20557;-89
2022/01/19 08:39:53;;;;;;;21.73;10.00;;;;;;;;;;4734521;30;20629;-89
2022/01/19 08:42:57;;;;;;;19.13;9.90;;;;;;;;;;4743835;30;21223;-89
2022/01/19 08:46:01;;;;;;;19.10;10.03;;;;;;;;;;4724313;30;20604;-89
2022/01/19 08:49:24;;;;;;;19.70;10.27;;;;;;;;;;4754915;30;21289;-89
2022/01/19 08:52:31;;;;;;;15.40;9.90;;;;;;;;;;4769726;30;20616;-89
2022/01/19 08:55:49;;;;;;;18.77;10.37;;;;;;;;;;4769784;30;20552;-89
2022/01/19 08:58:53;;;;;;;21.33;12.57;;;;;;;;;;4759352;30;20557;-89
2022/01/19 09:01:58;;;;;;;19.10;11.77;;;;;;;;;;4744538;30;20596;-88
2022/01/19 09:05:04;;;;;;;19.10;10.80;;;;;;;;;;4744431;30;20562;-89
2022/01/19 09:08:09;;;;;;;20.33;12.27;;;;;;;;;;4743998;30;20623;-89
2022/01/19 09:11:13;;;;;;;25.03;12.00;;;;;;;;;;4724259;30;20560;-89
2022/01/19 09:14:17;;;;;;;18.40;12.17;;;;;;;;;;4734083;30;20556;-89
2022/01/19 09:17:21;;;;;;;21.93;12.83;;;;;;;;;;4743518;30;20600;-89
2022/01/19 09:20:26;;;;;;;20.93;13.27;;;;;;;;;;4733983;30;20643;-89
2022/01/19 09:23:30;;;;;;;26.70;15.30;;;;;;;;;;4755022;30;20558;-89
2022/01/19 09:26:35;;;;;;;23.40;13.37;;;;;;;;;;4727893;30;20608;-89
2022/01/19 09:29:42;;;;;;;22.77;14.13;;;;;;;;;;4723920;30;20679;-89
2022/01/19 09:32:54;;;;;;;21.33;13.53;;;;;;;;;;4723888;30;20914;-89
2022/01/19 09:39:04;;;;;;;21.90;13.80;;;;;;;;;;4743874;30;20643;-89
2022/01/19 09:42:09;;;;;;;21.50;13.07;;;;;;;;;;4723882;30;20616;-89
2022/01/19 09:45:13;;;;;;;28.03;14.47;;;;;;;;;;4733945;30;20568;-89
2022/01/19 09:48:17;;;;;;;21.27;13.27;;;;;;;;;;4733606;30;20962;-89
2022/01/19 09:51:21;;;;;;;21.77;12.90;;;;;;;;;;4733581;30;20561;-89
2022/01/19 09:54:29;;;;;;;22.73;13.47;;;;;;;;;;4723625;30;20545;-89
2022/01/19 09:57:33;;;;;;;21.00;13.03;;;;;;;;;;4733483;30;20565;-89
2022/01/19 10:00:38;;;;;;;24.03;13.00;;;;;;;;;;4733096;30;20659;-86
2022/01/19 10:03:43;;;;;;;22.63;12.33;;;;;;;;;;4753755;30;21122;-86
2022/01/19 10:06:47;;;;;;;18.53;12.07;;;;;;;;;;4733525;30;20560;-86
2022/01/19 10:09:59;;;;;;;22.10;12.83;;;;;;;;;;4753425;30;20676;-86
2022/01/19 10:19:49;;;;;;;22.33;13.63;;;;;;;;;;4742875;30;20634;-85
2022/01/19 10:22:53;;;;;;;18.07;13.27;;;;;;;;;;4725999;30;20600;-86
2022/01/19 10:25:57;;;;;;;21.30;14.20;;;;;;;;;;4737282;30;21168;-86
2022/01/19 10:29:08;;;;;;;23.70;16.03;;;;;;;;;;4722916;30;20699;-86
2022/01/19 10:32:12;;;;;;;26.80;17.60;;;;;;;;;;4733020;30;20564;-86
2022/01/19 10:35:19;;;;;;;21.53;13.77;;;;;;;;;;4722875;30;20553;-86
2022/01/19 10:38:27;;;;;;;21.77;14.40;;;;;;;;;;4732004;30;20689;-87
2022/01/19 10:41:31;;;;;;;21.73;15.47;;;;;;;;;;4732720;30;20627;-86
2022/01/19 10:44:41;;;;;;;25.17;15.83;;;;;;;;;;4732540;30;20569;-86
2022/01/19 10:47:49;;;;;;;24.33;15.37;;;;;;;;;;4722453;30;20625;-86
2022/01/19 10:51:05;;;;;;;23.40;16.50;;;;;;;;;;4722547;30;20647;-86
2022/01/19 10:54:19;;;;;;;25.07;19.23;;;;;;;;;;4732548;30;20565;-87
2022/01/19 10:57:23;;;;;;;36.07;24.40;;;;;;;;;;4732628;30;20570;-86
2022/01/19 11:00:31;;;;;;;25.33;15.57;;;;;;;;;;4742523;30;20663;-88
2022/01/19 11:03:35;;;;;;;22.57;14.97;;;;;;;;;;4742643;30;21112;-88
2022/01/19 11:06:40;;;;;;;23.63;14.53;;;;;;;;;;4722297;30;20561;-89
2022/01/19 11:09:46;;;;;;;23.73;15.47;;;;;;;;;;4722276;30;20684;-88
2022/01/19 11:12:55;;;;;;;22.03;16.27;;;;;;;;;;4722228;30;20574;-88
2022/01/19 11:16:02;;;;;;;21.43;15.33;;;;;;;;;;4722098;30;20207;-88
2022/01/19 11:19:06;;;;;;;23.47;16.07;;;;;;;;;;4744779;30;20653;-88
2022/01/19 11:22:19;;;;;;;16.73;12.37;;;;;;;;;;4736303;30;20674;-88
2022/01/19 11:25:42;;;;;;;21.33;15.03;;;;;;;;;;4739446;30;20213;-88
2022/01/19 11:28:49;;;;;;;20.77;14.57;;;;;;;;;;4739661;30;20219;-88
2022/01/19 11:31:55;;;;;;;21.30;13.57;;;;;;;;;;4732030;30;20241;-88
2022/01/19 11:35:02;;;;;;;21.13;14.30;;;;;;;;;;4758892;30;20222;-88
2022/01/19 11:38:28;;;;;;;23.20;14.77;;;;;;;;;;4742098;30;20186;-89
2022/01/19 11:41:42;;;;;;;18.97;14.33;;;;;;;;;;4722101;30;20207;-88
2022/01/19 11:44:46;;;;;;;20.33;13.60;;;;;;;;;;4742844;30;20210;-88
2022/01/19 11:48:17;;;;;;;20.47;14.00;;;;;;;;;;4721578;30;20211;-88
2022/01/19 11:51:36;;;;;;;21.77;14.87;;;;;;;;;;4735580;30;20209;-89
2022/01/19 11:54:41;;;;;;;20.03;13.80;;;;;;;;;;4736796;30;20211;-88
2022/01/19 11:57:48;;;;;;;22.70;14.03;;;;;;;;;;4738338;30;20216;-88
2022/01/19 12:00:54;;;;;;;18.70;13.13;;;;;;;;;;4736556;30;20246;-88
2022/01/19 12:04:20;;;;;;;21.67;14.07;;;;;;;;;;4745324;30;20207;-88
2022/01/19 12:07:57;;;;;;;18.40;13.40;;;;;;;;;;4735408;30;20260;-88
2022/01/19 12:11:17;;;;;;;19.70;13.70;;;;;;;;;;4741331;30;20703;-88
2022/01/19 12:14:28;;;;;;;19.70;13.17;;;;;;;;;;4752788;30;20194;-88
2022/01/19 12:17:54;;;;;;;18.67;13.43;;;;;;;;;;4734384;30;20583;-88
2022/01/19 12:20:58;;;;;;;18.63;13.40;;;;;;;;;;4744842;30;20242;-88
2022/01/19 12:24:24;;;;;;;19.30;13.33;;;;;;;;;;4747168;30;20223;-88
2022/01/19 12:27:36;;;;;;;19.67;12.60;;;;;;;;;;4752408;30;20203;-88
2022/01/19 12:30:40;;;;;;;19.27;13.37;;;;;;;;;;4724962;30;20718;-88
2022/01/19 12:34:03;;;;;;;21.97;14.30;;;;;;;;;;4724759;30;20202;-88
2022/01/19 12:37:07;;;;;;;19.53;13.30;;;;;;;;;;4732525;30;20217;-89
2022/01/19 12:40:36;;;;;;;19.17;13.73;;;;;;;;;;4734371;30;20233;-88
2022/01/19 12:43:43;;;;;;;19.10;13.30;;;;;;;;;;4724958;30;20201;-88
2022/01/19 12:46:51;;;;;;;22.33;14.43;;;;;;;;;;4725573;30;20209;-88
2022/01/19 12:49:58;;;;;;;20.43;14.20;;;;;;;;;;4743356;30;20254;-88
2022/01/19 12:53:09;;;;;;;19.13;13.53;;;;;;;;;;4744704;30;20218;-88
2022/01/19 12:56:14;;;;;;;17.27;12.57;;;;;;;;;;4742172;30;20202;-88
2022/01/19 12:59:18;;;;;;;18.63;13.27;;;;;;;;;;4733048;30;20245;-88
2022/01/19 13:02:28;;;;;;;20.17;13.87;;;;;;;;;;4741217;30;20217;-88
2022/01/19 13:05:32;;;;;;;19.43;13.83;;;;;;;;;;4754301;30;20217;-88
2022/01/19 13:08:45;;;;;;;18.47;14.83;;;;;;;;;;4748464;30;20211;-89
2022/01/19 13:11:53;;;;;;;18.80;12.67;;;;;;;;;;4727974;30;20214;-88
2022/01/19 13:14:58;;;;;;;17.70;12.07;;;;;;;;;;4746241;30;20211;-89
2022/01/19 13:18:02;;;;;;;16.03;11.80;;;;;;;;;;4741188;30;20221;-88
2022/01/19 13:21:08;;;;;;;18.03;12.13;;;;;;;;;;4741702;30;20654;-89
2022/01/19 13:24:22;;;;;;;15.60;10.93;;;;;;;;;;4751674;30;20206;-88
2022/01/19 13:27:31;;;;;;;17.00;11.10;;;;;;;;;;4751476;30;20205;-88
2022/01/19 13:30:36;;;;;;;14.83;10.30;;;;;;;;;;4744006;30;20250;-88
2022/01/19 13:33:49;;;;;;;13.73;9.80;;;;;;;;;;4723888;30;20274;-89
2022/01/19 13:36:56;;;;;;;16.40;10.13;;;;;;;;;;4733564;30;20368;-89
2022/01/19 13:40:15;;;;;;;16.40;10.27;;;;;;;;;;4734453;30;20223;-88
2022/01/19 13:43:20;;;;;;;14.63;10.20;;;;;;;;;;4733784;30;20562;-89
2022/01/19 13:46:29;;;;;;;13.77;11.17;;;;;;;;;;4733863;30;20700;-89
2022/01/19 13:49:33;;;;;;;15.23;11.20;;;;;;;;;;4737410;30;20623;-89
2022/01/19 13:52:37;;;;;;;14.67;10.63;;;;;;;;;;4744335;30;20212;-88
2022/01/19 13:55:41;;;;;;;15.70;10.20;;;;;;;;;;4737567;30;20220;-88
2022/01/19 13:58:49;;;;;;;14.13;10.00;;;;;;;;;;4734402;30;20224;-88
2022/01/19 14:01:59;;;;;;;12.07;9.40;;;;;;;;;;4735347;30;20680;-89
2022/01/19 14:05:05;;;;;;;14.63;10.33;;;;;;;;;;4724506;30;20199;-88
2022/01/19 14:08:10;;;;;;;13.20;9.87;;;;;;;;;;4764377;30;20206;-88
2022/01/19 14:11:25;;;;;;;15.30;9.87;;;;;;;;;;4735051;30;20199;-87
2022/01/19 14:14:34;;;;;;;15.97;10.63;;;;;;;;;;4752470;30;20202;-87
2022/01/19 14:17:40;;;;;;;13.17;9.43;;;;;;;;;;4730521;30;20219;-88
2022/01/19 14:20:43;;;;;;;13.30;9.60;;;;;;;;;;4750531;30;20222;-88
2022/01/19 14:24:01;;;;;;;15.73;10.17;;;;;;;;;;4740674;30;20190;-88
2022/01/19 14:27:06;;;;;;;14.57;9.60;;;;;;;;;;4740318;30;20668;-89
2022/01/19 14:30:13;;;;;;;14.63;10.27;;;;;;;;;;4750263;30;20242;-89
2022/01/19 14:33:17;;;;;;;13.50;9.97;;;;;;;;;;4750568;30;20651;-88
2022/01/19 14:36:23;;;;;;;14.70;10.70;;;;;;;;;;4740460;30;20190;-89
2022/01/19 14:39:27;;;;;;;15.60;11.27;;;;;;;;;;4740203;30;20235;-89
2022/01/19 14:42:36;;;;;;;15.87;11.00;;;;;;;;;;4750608;30;20209;-88
2022/01/19 14:45:55;;;;;;;14.07;10.37;;;;;;;;;;4740250;30;20190;-88
2022/01/19 14:49:01;;;;;;;15.67;11.63;;;;;;;;;;4749945;30;20190;-89
2022/01/19 14:52:05;;;;;;;16.73;11.50;;;;;;;;;;4750129;30;20198;-89
2022/01/19 14:55:10;;;;;;;20.87;11.47;;;;;;;;;;4749956;30;20274;-88
2022/01/19 14:58:14;;;;;;;14.10;10.47;;;;;;;;;;4750182;30;20206;-89
2022/01/19 15:01:18;;;;;;;16.23;12.07;;;;;;;;;;4749969;30;20195;-89
2022/01/19 15:04:23;;;;;;;15.90;11.73;;;;;;;;;;4749834;30;20609;-89
2022/01/19 15:07:27;;;;;;;17.73;11.73;;;;;;;;;;4750267;30;20190;-89
2022/01/19 15:10:32;;;;;;;20.37;12.60;;;;;;;;;;4739714;30;20241;-89
2022/01/19 15:13:36;;;;;;;20.17;12.07;;;;;;;;;;4739718;30;20221;-89
2022/01/19 15:16:40;;;;;;;18.43;12.93;;;;;;;;;;4739718;30;20207;-88
2022/01/19 15:19:45;;;;;;;15.63;11.23;;;;;;;;;;4749580;30;20594;-89
2022/01/19 15:22:49;;;;;;;16.37;11.07;;;;;;;;;;4749539;30;20695;-88
2022/01/19 15:25:57;;;;;;;15.23;10.77;;;;;;;;;;4739631;30;20225;-89
2022/01/19 15:29:02;;;;;;;14.93;10.73;;;;;;;;;;4739444;30;20234;-88
2022/01/19 15:32:07;;;;;;;20.80;13.17;;;;;;;;;;4749826;30;20205;-88
2022/01/19 15:35:11;;;;;;;67.07;36.10;;;;;;;;;;4739674;30;20210;-89
2022/01/19 15:38:17;;;;;;;61.20;31.20;;;;;;;;;;4739728;30;20186;-89
2022/01/19 15:41:21;;;;;;;57.57;30.90;;;;;;;;;;4739425;30;20225;-88
2022/01/19 15:44:26;;;;;;;44.60;25.63;;;;;;;;;;4732840;30;20283;-88
2022/01/19 15:47:30;;;;;;;29.27;20.53;;;;;;;;;;4732522;30;20194;-87
2022/01/19 15:50:34;;;;;;;25.07;17.93;;;;;;;;;;4721760;30;20249;-87
2022/01/19 15:53:38;;;;;;;24.30;16.53;;;;;;;;;;4731841;30;20567;-88
2022/01/19 15:56:45;;;;;;;21.63;15.03;;;;;;;;;;4742100;30;20618;-88
2022/01/19 15:59:50;;;;;;;27.07;15.60;;;;;;;;;;4731799;30;21256;-88
2022/01/19 16:02:54;;;;;;;21.77;14.77;;;;;;;;;;4736861;30;20656;-88
2022/01/19 16:05:58;;;;;;;21.93;15.37;;;;;;;;;;4749429;30;20909;-89
2022/01/19 16:09:03;;;;;;;20.40;14.53;;;;;;;;;;4749379;30;21108;-89
2022/01/19 16:12:07;;;;;;;24.50;14.83;;;;;;;;;;4735294;30;20608;-88
2022/01/19 16:15:13;;;;;;;16.87;10.93;;;;;;;;;;4737532;30;20613;-87
2022/01/19 16:18:19;;;;;;;19.00;12.83;;;;;;;;;;4738696;30;20611;-89
2022/01/19 16:21:23;;;;;;;25.93;15.90;;;;;;;;;;4733871;30;20604;-89
2022/01/19 16:27:50;;;;;;;26.23;15.50;;;;;;;;;;4741828;30;20566;-88
2022/01/19 16:30:54;;;;;;;22.87;14.80;;;;;;;;;;4738465;30;20698;-89
2022/01/19 16:33:58;;;;;;;21.87;14.60;;;;;;;;;;4748961;30;20565;-89
2022/01/19 16:37:03;;;;;;;22.60;13.77;;;;;;;;;;4752700;30;20561;-89
2022/01/19 16:40:08;;;;;;;22.57;14.77;;;;;;;;;;4744033;30;21027;-89
2022/01/19 16:43:12;;;;;;;22.33;14.70;;;;;;;;;;4743357;30;20574;-89
2022/01/19 16:46:22;;;;;;;25.67;14.43;;;;;;;;;;4735152;30;20607;-88
2022/01/19 16:49:29;;;;;;;24.70;14.20;;;;;;;;;;4761999;30;20995;-87
2022/01/19 16:52:33;;;;;;;21.90;14.33;;;;;;;;;;4752094;30;20558;-88
2022/01/19 16:55:37;;;;;;;21.83;14.83;;;;;;;;;;4742057;30;20564;-88
2022/01/19 16:58:41;;;;;;;21.60;14.97;;;;;;;;;;4750799;30;20622;-88
2022/01/19 17:01:46;;;;;;;21.50;13.83;;;;;;;;;;4755325;25;20719;-88
2022/01/19 17:04:50;;;;;;;22.43;13.63;;;;;;;;;;4762427;30;20618;-88
2022/01/19 17:07:53;;;;;;;17.20;10.20;;;;;;;;;;4769579;30;20635;-83
2022/01/19 17:10:59;;;;;;;23.97;15.10;;;;;;;;;;4751789;30;20686;-87
2022/01/19 17:14:08;;;;;;;17.47;12.67;;;;;;;;;;4742236;30;21213;-88
2022/01/19 17:17:18;;;;;;;19.17;12.13;;;;;;;;;;4751898;30;20560;-88
2022/01/19 17:20:27;;;;;;;17.27;12.10;;;;;;;;;;4762098;30;20732;-88
2022/01/19 17:23:32;;;;;;;23.23;14.03;;;;;;;;;;4741824;30;20615;-89
2022/01/19 17:26:36;;;;;;;22.90;13.70;;;;;;;;;;4751677;30;20568;-89
2022/01/19 17:29:40;;;;;;;23.97;15.17;;;;;;;;;;4750310;30;20609;-88
2022/01/19 17:32:44;;;;;;;27.37;14.80;;;;;;;;;;4763579;30;20599;-86
2022/01/19 17:35:48;;;;;;;21.20;13.97;;;;;;;;;;4741271;30;20559;-86
2022/01/19 17:39:17;;;;;;;18.70;12.97;;;;;;;;;;4752618;30;20603;-87
2022/01/19 17:42:26;;;;;;;22.70;13.47;;;;;;;;;;4751362;30;20925;-87
2022/01/19 17:45:43;;;;;;;19.80;13.80;;;;;;;;;;4758216;30;20634;-87
2022/01/19 17:49:31;;;;;;;25.07;14.53;;;;;;;;;;4766874;30;20614;-87
2022/01/19 17:52:22;;;;;;;25.83;13.50;;;;;;;;;;4751139;30;20632;-87
2022/01/19 17:55:29;;;;;;;22.33;14.67;;;;;;;;;;4748012;30;20625;-89
2022/01/19 17:58:34;;;;;;;23.57;14.07;;;;;;;;;;4744070;30;20642;-88
2022/01/19 18:01:39;;;;;;;26.47;14.10;;;;;;;;;;4750864;30;20686;-88
2022/01/19 18:05:08;;;;;;;22.43;15.40;;;;;;;;;;4750574;30;20623;-88
2022/01/19 18:08:13;;;;;;;26.30;16.03;;;;;;;;;;4750741;30;20548;-87
2022/01/19 18:11:18;;;;;;;26.80;17.03;;;;;;;;;;4778852;30;21032;-88
2022/01/19 18:14:22;;;;;;;24.40;15.67;;;;;;;;;;4760719;30;20575;-88
2022/01/19 18:17:26;;;;;;;31.07;19.13;;;;;;;;;;4751381;30;20612;-88
2022/01/19 18:20:31;;;;;;;29.13;20.10;;;;;;;;;;4760918;30;20644;-88
2022/01/19 18:23:36;;;;;;;24.57;17.67;;;;;;;;;;4750768;30;20612;-89
2022/01/19 18:26:40;;;;;;;23.53;16.40;;;;;;;;;;4751363;30;20619;-88
2022/01/19 18:29:44;;;;;;;25.67;13.87;;;;;;;;;;4751820;30;20617;-88
2022/01/19 18:32:48;;;;;;;31.77;23.30;;;;;;;;;;4750403;30;20613;-87
2022/01/19 18:35:54;;;;;;;32.13;19.07;;;;;;;;;;4750850;30;20613;-88
2022/01/19 18:38:59;;;;;;;21.13;12.87;;;;;;;;;;4750947;30;20557;-86
2022/01/19 18:42:06;;;;;;;21.07;12.80;;;;;;;;;;4761199;30;21167;-86
2022/01/19 18:45:11;;;;;;;18.53;12.90;;;;;;;;;;4750479;30;20617;-86
2022/01/19 18:48:17;;;;;;;18.33;12.03;;;;;;;;;;4750517;30;20909;-88
2022/01/19 18:51:21;;;;;;;21.30;13.97;;;;;;;;;;4765940;30;20678;-88
2022/01/19 18:54:25;;;;;;;19.27;12.70;;;;;;;;;;4778400;30;20568;-89
2022/01/19 18:57:29;;;;;;;17.43;12.43;;;;;;;;;;4768319;30;20560;-88
2022/01/19 19:00:34;;;;;;;19.27;12.33;;;;;;;;;;4757406;30;21057;-88
2022/01/19 19:03:39;;;;;;;18.50;12.47;;;;;;;;;;4769302;30;20574;-87
2022/01/19 19:06:46;;;;;;;20.93;11.17;;;;;;;;;;4769134;30;20602;-88
2022/01/19 19:11:03;;;;;;;15.60;10.17;;;;;;;;;;4778535;30;20610;-88
2022/01/19 19:13:25;;;;;;;14.80;8.93;;;;;;;;;;4767825;30;20631;-88
2022/01/19 19:16:29;;;;;;;12.10;7.90;;;;;;;;;;4758387;30;20599;-88
2022/01/19 19:19:34;;;;;;;9.90;6.90;;;;;;;;;;4759164;30;20603;-88
2022/01/19 19:22:40;;;;;;;10.10;6.90;;;;;;;;;;4748364;30;20624;-88
2022/01/19 19:25:44;;;;;;;10.03;6.40;;;;;;;;;;4752897;30;20549;-88
2022/01/19 19:28:48;;;;;;;10.00;6.80;;;;;;;;;;4753265;30;20600;-88
2022/01/19 19:31:52;;;;;;;10.67;7.10;;;;;;;;;;4774368;30;20679;-88
2022/01/19 19:34:56;;;;;;;10.17;7.20;;;;;;;;;;4751189;30;20553;-88
2022/01/19 19:38:00;;;;;;;11.63;7.50;;;;;;;;;;4751627;30;20552;-88
2022/01/19 19:41:06;;;;;;;13.07;7.27;;;;;;;;;;4771227;30;20658;-88
2022/01/19 19:44:13;;;;;;;13.20;8.73;;;;;;;;;;4751516;30;20628;-88
2022/01/19 19:47:17;;;;;;;16.30;8.70;;;;;;;;;;4731203;30;20631;-88